createdAt,value
2018-09-23T00:00:41.000Z,77.65
2018-09-23T00:03:09.019Z,78.20
2018-09-23T00:05:37.031Z,78.05
2018-09-23T00:08:05.039Z,78.69
2018-09-23T00:10:33.071Z,78.19
2018-09-23T00:13:01.068Z,78.10
2018-09-23T00:15:29.100Z,78.64
2018-09-23T00:17:57.108Z,79.02
2018-09-23T00:20:25.685Z,78.60
2018-09-23T00:22:53.841Z,78.39
2018-09-23T00:25:21.861Z,78.43
2018-09-23T00:27:49.859Z,79.14
2018-09-23T00:30:17.875Z,78.79
2018-09-23T00:32:45.880Z,78.56
2018-09-23T00:35:13.888Z,78.51
2018-09-23T00:37:41.903Z,79.05
2018-09-23T00:40:09.916Z,78.96
2018-09-23T00:42:38.115Z,78.96
2018-09-23T00:45:06.119Z,78.28
2018-09-23T00:47:34.139Z,79.03
2018-09-23T00:50:02.147Z,79.23
2018-09-23T00:52:30.159Z,78.77
2018-09-23T00:54:58.328Z,78.64
2018-09-23T00:57:26.336Z,78.95
2018-09-23T00:59:54.399Z,78.66
2018-09-23T01:02:22.567Z,78.00
2018-09-23T01:04:51.588Z,78.15
2018-09-23T01:07:19.600Z,78.15
2018-09-23T01:09:47.883Z,77.84
2018-09-23T01:12:19.003Z,78.03
2018-09-23T01:14:47.047Z,77.91
2018-09-23T01:17:15.052Z,77.58
2018-09-23T01:19:43.080Z,77.82
2018-09-23T01:22:11.095Z,77.88
2018-09-23T01:24:39.100Z,77.60
2018-09-23T01:27:07.120Z,78.01
2018-09-23T01:29:35.127Z,77.94
2018-09-23T01:32:03.140Z,78.05
2018-09-23T01:34:31.143Z,78.00
2018-09-23T01:36:59.160Z,77.67
2018-09-23T01:39:27.171Z,77.40
2018-09-23T01:41:55.195Z,78.00
2018-09-23T01:44:23.208Z,77.93
2018-09-23T01:46:51.229Z,77.67
2018-09-23T01:49:19.236Z,77.32
2018-09-23T01:51:47.417Z,77.29
2018-09-23T01:54:15.465Z,77.18
2018-09-23T01:56:43.479Z,77.37
2018-09-23T01:59:11.497Z,76.64
2018-09-23T02:01:39.496Z,77.16
2018-09-23T02:04:07.500Z,77.25
2018-09-23T02:06:35.516Z,77.14
2018-09-23T02:09:04.208Z,77.69
2018-09-23T02:11:32.223Z,77.18
2018-09-23T02:14:12.107Z,76.66
2018-09-23T02:16:40.111Z,77.79
2018-09-23T02:19:08.160Z,77.27
2018-09-23T02:21:36.247Z,77.04
2018-09-23T02:24:04.968Z,76.68
2018-09-23T02:26:32.976Z,76.91
2018-09-23T02:29:00.976Z,77.15
2018-09-23T02:31:28.999Z,77.03
2018-09-23T02:33:57.015Z,77.32
2018-09-23T02:36:25.311Z,77.06
2018-09-23T02:38:53.665Z,76.53
2018-09-23T02:41:21.643Z,77.06
2018-09-23T02:43:49.820Z,77.06
2018-09-23T02:46:17.923Z,77.04
2018-09-23T02:48:45.984Z,76.84
2018-09-23T02:51:13.999Z,76.62
2018-09-23T02:53:43.032Z,76.82
2018-09-23T02:56:11.052Z,77.63
2018-09-23T02:58:39.221Z,77.56
2018-09-23T03:01:07.849Z,77.13
2018-09-23T03:03:35.928Z,77.12
2018-09-23T03:06:05.228Z,76.77
2018-09-23T03:08:33.334Z,76.38
2018-09-23T03:11:01.351Z,76.49
2018-09-23T03:13:29.372Z,76.67
2018-09-23T03:15:57.520Z,76.21
2018-09-23T03:18:25.704Z,76.33
2018-09-23T03:20:53.724Z,76.88
2018-09-23T03:23:22.032Z,76.48
2018-09-23T03:25:50.050Z,76.32
2018-09-23T03:28:18.490Z,76.01
2018-09-23T03:30:46.560Z,76.56
2018-09-23T03:33:14.588Z,76.03
2018-09-23T03:35:42.705Z,76.86
2018-09-23T03:38:10.764Z,76.06
2018-09-23T03:40:38.942Z,76.74
2018-09-23T03:43:07.224Z,76.75
2018-09-23T03:45:35.244Z,77.13
2018-09-23T03:48:03.655Z,77.67
2018-09-23T03:50:31.723Z,77.33
2018-09-23T03:52:59.743Z,77.34
2018-09-23T03:55:28.375Z,77.04
2018-09-23T03:57:56.497Z,77.78
2018-09-23T04:00:24.829Z,77.48
2018-09-23T04:02:53.020Z,76.62
2018-09-23T04:05:21.040Z,77.08
2018-09-23T04:07:49.079Z,77.05
2018-09-23T04:10:17.524Z,76.50
2018-09-23T04:12:45.559Z,76.71
2018-09-23T04:15:13.582Z,76.40
2018-09-23T04:17:41.604Z,76.38
2018-09-23T04:20:09.626Z,76.75
2018-09-23T04:22:52.339Z,76.64
2018-09-23T04:25:21.528Z,76.49
2018-09-23T04:27:50.455Z,76.70
2018-09-23T04:30:20.204Z,76.42
2018-09-23T04:32:49.399Z,76.87
2018-09-23T04:35:18.305Z,76.66
2018-09-23T04:37:46.865Z,76.96
2018-09-23T04:40:14.880Z,76.13
2018-09-23T04:42:43.059Z,76.17
2018-09-23T04:45:11.089Z,76.83
2018-09-23T04:47:39.115Z,76.42
2018-09-23T04:50:07.140Z,76.91
2018-09-23T04:52:35.159Z,76.18
2018-09-23T04:55:03.394Z,76.97
2018-09-23T04:57:31.755Z,76.83
2018-09-23T04:59:59.871Z,76.39
2018-09-23T05:02:28.236Z,76.98
2018-09-23T05:04:56.292Z,77.42
2018-09-23T05:07:24.348Z,77.26
2018-09-23T05:09:53.272Z,77.14
2018-09-23T05:12:21.723Z,77.28
2018-09-23T05:14:49.787Z,76.67
2018-09-23T05:17:17.978Z,77.42
2018-09-23T05:19:45.985Z,76.97
2018-09-23T05:22:13.999Z,77.36
2018-09-23T05:24:42.035Z,77.23
2018-09-23T05:27:10.668Z,76.95
2018-09-23T05:29:38.831Z,76.78
2018-09-23T05:32:07.003Z,76.93
2018-09-23T05:34:35.299Z,77.08
2018-09-23T05:37:03.331Z,77.08
2018-09-23T05:39:31.343Z,77.12
2018-09-23T05:41:59.788Z,77.60
2018-09-23T05:44:28.384Z,77.42
2018-09-23T05:46:56.416Z,77.30
2018-09-23T05:49:24.448Z,77.05
2018-09-23T05:51:52.467Z,77.11
2018-09-23T05:54:20.496Z,77.15
2018-09-23T05:56:48.711Z,76.79
2018-09-23T05:59:16.904Z,77.04
2018-09-23T06:01:45.611Z,76.97
2018-09-23T06:04:13.676Z,76.91
2018-09-23T06:06:41.817Z,77.12
2018-09-23T06:09:10.128Z,76.63
2018-09-23T06:11:38.139Z,76.70
2018-09-23T06:14:06.951Z,76.56
2018-09-23T06:16:34.977Z,76.71
2018-09-23T06:19:02.987Z,76.51
2018-09-23T06:21:31.388Z,76.22
2018-09-23T06:23:59.405Z,76.58
2018-09-23T06:26:27.534Z,76.79
2018-09-23T06:28:55.904Z,77.05
2018-09-23T06:31:24.081Z,77.03
2018-09-23T06:33:52.216Z,77.06
2018-09-23T06:36:20.404Z,76.79
2018-09-23T06:38:48.883Z,77.68
2018-09-23T06:41:16.908Z,76.93
2018-09-23T06:43:44.969Z,77.63
2018-09-23T06:46:13.196Z,77.01
2018-09-23T06:48:41.418Z,77.16
2018-09-23T06:51:09.836Z,77.25
2018-09-23T06:53:37.900Z,77.64
2018-09-23T06:56:06.237Z,77.03
2018-09-23T06:58:34.346Z,77.05
2018-09-23T07:01:02.360Z,76.56
2018-09-23T07:03:36.884Z,77.03
2018-09-23T07:06:05.139Z,76.60
2018-09-23T07:08:33.156Z,77.21
2018-09-23T07:11:01.339Z,77.21
2018-09-23T07:13:29.364Z,77.52
2018-09-23T07:15:57.383Z,77.24
2018-09-23T07:18:25.632Z,76.33
2018-09-23T07:20:53.872Z,76.68
2018-09-23T07:23:22.076Z,75.99
2018-09-23T07:25:50.147Z,76.63
2018-09-23T07:28:18.159Z,76.74
2018-09-23T07:30:47.108Z,76.82
2018-09-23T07:33:15.268Z,75.88
2018-09-23T07:35:43.344Z,76.36
2018-09-23T07:38:11.419Z,76.49
2018-09-23T07:40:39.487Z,76.31
2018-09-23T07:43:07.520Z,76.16
2018-09-23T07:45:35.640Z,76.16
2018-09-23T07:48:03.735Z,76.54
2018-09-23T07:50:31.723Z,76.36
2018-09-23T07:52:59.844Z,76.03
2018-09-23T07:55:27.900Z,76.22
2018-09-23T07:57:55.931Z,75.69
2018-09-23T08:00:23.972Z,75.96
2018-09-23T08:02:52.107Z,76.52
2018-09-23T08:05:20.137Z,75.36
2018-09-23T08:07:48.280Z,75.61
2018-09-23T08:10:16.283Z,76.04
2018-09-23T08:12:44.422Z,76.25
2018-09-23T08:15:12.347Z,76.67
2018-09-23T08:17:40.421Z,75.94
2018-09-23T08:20:08.547Z,76.16
2018-09-23T08:22:36.471Z,75.81
2018-09-23T08:25:04.547Z,76.08
2018-09-23T08:27:32.567Z,76.01
2018-09-23T08:30:00.619Z,75.75
2018-09-23T08:32:28.660Z,75.69
2018-09-23T08:34:56.743Z,75.78
2018-09-23T08:37:24.826Z,75.71
2018-09-23T08:39:52.949Z,75.91
2018-09-23T08:42:21.264Z,76.07
2018-09-23T08:44:49.337Z,76.29
2018-09-23T08:47:17.368Z,75.70
2018-09-23T08:49:45.472Z,76.17
2018-09-23T08:52:13.554Z,76.35
2018-09-23T08:54:41.685Z,76.16
2018-09-23T08:57:09.870Z,76.20
2018-09-23T08:59:37.884Z,76.08
2018-09-23T09:02:06.083Z,75.07
2018-09-23T09:04:34.284Z,75.99
2018-09-23T09:07:02.298Z,76.07
2018-09-23T09:09:30.304Z,75.31
2018-09-23T09:11:58.401Z,76.22
2018-09-23T09:14:26.369Z,75.35
2018-09-23T09:16:54.392Z,75.68
2018-09-23T09:19:22.628Z,75.68
2018-09-23T09:21:50.690Z,75.71
2018-09-23T09:24:18.700Z,75.57
2018-09-23T09:26:47.197Z,76.28
2018-09-23T09:29:15.224Z,75.38
2018-09-23T09:31:43.563Z,75.91
2018-09-23T09:34:11.669Z,75.94
2018-09-23T09:36:39.695Z,75.92
2018-09-23T09:39:09.687Z,75.82
2018-09-23T09:41:38.000Z,76.01
2018-09-23T09:44:06.297Z,75.83
2018-09-23T09:46:34.472Z,76.62
2018-09-23T09:49:03.156Z,75.98
2018-09-23T09:51:31.546Z,76.34
2018-09-23T09:53:59.556Z,76.36
2018-09-23T09:56:27.692Z,76.34
2018-09-23T09:58:55.739Z,76.20
2018-09-23T10:01:23.768Z,76.95
2018-09-23T10:03:51.793Z,76.64
2018-09-23T10:06:37.419Z,76.76
2018-09-23T10:09:07.772Z,77.32
2018-09-23T10:11:36.169Z,77.82
2018-09-23T10:14:05.192Z,77.86
2018-09-23T10:16:33.211Z,77.17
2018-09-23T10:19:01.384Z,77.18
2018-09-23T10:21:29.572Z,77.12
2018-09-23T10:23:57.693Z,77.64
2018-09-23T10:26:25.837Z,77.09
2018-09-23T10:28:53.948Z,77.56
2018-09-23T10:31:22.242Z,77.46
2018-09-23T10:33:50.183Z,77.61
2018-09-23T10:36:18.398Z,77.27
2018-09-23T10:38:46.588Z,78.07
2018-09-23T10:41:14.801Z,78.22
2018-09-23T10:43:42.823Z,77.96
2018-09-23T10:46:11.105Z,78.19
2018-09-23T10:48:39.120Z,77.93
2018-09-23T10:51:07.728Z,77.94
2018-09-23T10:53:36.024Z,78.43
2018-09-23T10:56:04.741Z,78.45
2018-09-23T10:58:32.756Z,78.06
2018-09-23T11:01:01.168Z,78.26
2018-09-23T11:03:29.251Z,77.34
2018-09-23T11:05:57.321Z,78.28
2018-09-23T11:08:25.343Z,77.74
2018-09-23T11:10:53.348Z,78.23
2018-09-23T11:13:21.540Z,77.88
2018-09-23T11:15:49.632Z,78.24
2018-09-23T11:18:17.643Z,78.88
2018-09-23T11:20:45.936Z,79.27
2018-09-23T11:23:14.548Z,79.52
2018-09-23T11:25:42.503Z,78.77
2018-09-23T11:28:10.859Z,79.34
2018-09-23T11:30:38.990Z,78.33
2018-09-23T11:33:06.944Z,78.62
2018-09-23T11:35:34.955Z,78.94
2018-09-23T11:38:02.976Z,78.51
2018-09-23T11:40:31.071Z,78.77
2018-09-23T11:42:59.238Z,79.03
2018-09-23T11:45:27.243Z,78.57
2018-09-23T11:47:55.435Z,78.59
2018-09-23T11:50:23.456Z,78.82
2018-09-23T11:52:52.000Z,79.71
2018-09-23T11:55:20.547Z,79.24
2018-09-23T11:57:48.555Z,79.04
2018-09-23T12:00:16.627Z,79.80
2018-09-23T12:02:44.638Z,79.54
2018-09-23T12:05:12.639Z,79.41
2018-09-23T12:07:40.815Z,79.71
2018-09-23T12:10:08.881Z,80.00
2018-09-23T12:12:36.851Z,79.93
2018-09-23T12:15:06.840Z,79.79
2018-09-23T12:17:34.848Z,79.55
2018-09-23T12:20:02.996Z,79.58
2018-09-23T12:22:31.632Z,78.92
2018-09-23T12:24:59.791Z,79.18
2018-09-23T12:27:27.835Z,79.33
2018-09-23T12:29:55.844Z,79.02
2018-09-23T12:32:23.856Z,78.83
2018-09-23T12:34:51.864Z,78.54
2018-09-23T12:37:19.868Z,79.30
2018-09-23T12:39:47.887Z,79.08
2018-09-23T12:42:15.892Z,79.81
2018-09-23T12:44:44.066Z,78.45
2018-09-23T12:47:13.064Z,79.46
2018-09-23T12:49:41.074Z,79.17
2018-09-23T12:52:09.927Z,79.23
2018-09-23T12:54:37.940Z,77.79
2018-09-23T12:57:05.964Z,78.00
2018-09-23T12:59:34.072Z,77.57
2018-09-23T13:02:02.096Z,78.05
2018-09-23T13:04:30.711Z,77.84
2018-09-23T13:06:58.740Z,78.13
2018-09-23T13:09:26.770Z,77.03
2018-09-23T13:11:54.809Z,76.75
2018-09-23T13:14:22.879Z,76.90
2018-09-23T13:16:50.891Z,76.66
2018-09-23T13:19:18.902Z,77.03
2018-09-23T13:21:48.316Z,77.34
2018-09-23T13:24:16.884Z,77.08
2018-09-23T13:26:44.895Z,75.66
2018-09-23T13:29:12.927Z,76.37
2018-09-23T13:31:40.926Z,76.93
2018-09-23T13:34:09.455Z,76.62
2018-09-23T13:36:37.625Z,76.68
2018-09-23T13:39:06.403Z,76.43
2018-09-23T13:41:34.443Z,76.78
2018-09-23T13:44:02.607Z,77.19
2018-09-23T13:46:30.646Z,77.51
2018-09-23T13:48:58.755Z,77.51
2018-09-23T13:51:26.779Z,77.32
2018-09-23T13:53:54.781Z,77.58
2018-09-23T13:56:22.800Z,78.35
2018-09-23T13:58:50.803Z,77.99
2018-09-23T14:01:18.839Z,78.96
2018-09-23T14:03:47.395Z,79.10
2018-09-23T14:06:15.464Z,79.20
2018-09-23T14:08:43.479Z,79.25
2018-09-23T14:11:11.490Z,79.27
2018-09-23T14:13:39.662Z,79.39
2018-09-23T14:16:07.664Z,79.72
2018-09-23T14:18:35.676Z,78.73
2018-09-23T14:21:04.617Z,79.07
2018-09-23T14:23:32.623Z,79.03
2018-09-23T14:26:00.632Z,78.96
2018-09-23T14:28:28.803Z,79.04
2018-09-23T14:30:56.824Z,78.91
2018-09-23T14:33:25.965Z,79.47
2018-09-23T14:35:54.164Z,79.36
2018-09-23T14:38:22.192Z,79.72
2018-09-23T14:40:50.207Z,79.11
2018-09-23T14:43:18.388Z,79.28
2018-09-23T14:45:46.401Z,78.80
2018-09-23T14:48:14.445Z,79.48
2018-09-23T14:50:42.627Z,80.14
2018-09-23T14:53:10.644Z,80.25
2018-09-23T14:55:38.655Z,79.74
2018-09-23T14:58:06.671Z,79.92
2018-09-23T15:00:34.804Z,80.14
2018-09-23T15:03:02.792Z,79.89
2018-09-23T15:05:30.809Z,80.39
2018-09-23T15:07:59.248Z,79.89
2018-09-23T15:10:28.251Z,80.45
2018-09-23T15:12:56.340Z,80.34
2018-09-23T15:15:24.356Z,80.39
2018-09-23T15:17:52.388Z,80.78
2018-09-23T15:20:20.564Z,80.50
2018-09-23T15:22:48.588Z,80.32
2018-09-23T15:25:16.599Z,79.99
2018-09-23T15:27:44.616Z,79.67
2018-09-23T15:30:13.563Z,79.97
2018-09-23T15:32:41.572Z,80.25
2018-09-23T15:35:09.664Z,79.42
2018-09-23T15:37:37.699Z,80.09
2018-09-23T15:40:05.749Z,79.46
2018-09-23T15:42:33.809Z,80.08
2018-09-23T15:45:01.828Z,79.81
2018-09-23T15:47:29.848Z,80.17
2018-09-23T15:49:57.869Z,80.00
2018-09-23T15:52:25.872Z,79.94
2018-09-23T15:54:53.883Z,80.24
2018-09-23T15:57:21.932Z,80.11
2018-09-23T15:59:49.948Z,79.34
2018-09-23T16:02:18.104Z,79.92
2018-09-23T16:04:46.119Z,79.55
2018-09-23T16:07:14.127Z,79.80
2018-09-23T16:09:42.287Z,80.03
2018-09-23T16:12:10.292Z,80.74
2018-09-23T16:14:38.940Z,79.86
2018-09-23T16:17:06.985Z,80.40
2018-09-23T16:19:34.991Z,80.44
2018-09-23T16:22:03.003Z,80.26
2018-09-23T16:24:31.065Z,80.19
2018-09-23T16:26:59.076Z,80.77
2018-09-23T16:29:27.085Z,80.61
2018-09-23T16:31:55.404Z,80.70
2018-09-23T16:34:23.500Z,80.56
2018-09-23T16:36:51.503Z,80.99
2018-09-23T16:39:19.520Z,80.01
2018-09-23T16:41:47.527Z,79.86
2018-09-23T16:44:15.542Z,79.28
2018-09-23T16:46:43.536Z,79.54
2018-09-23T16:49:11.551Z,77.73
2018-09-23T16:51:40.425Z,78.23
2018-09-23T16:54:08.427Z,77.33
2018-09-23T16:56:37.069Z,76.91
2018-09-23T16:59:05.915Z,76.14
2018-09-23T17:01:33.952Z,75.83
2018-09-23T17:04:01.976Z,76.96
2018-09-23T17:06:29.991Z,78.02
2018-09-23T17:08:58.019Z,78.18
2018-09-23T17:11:26.069Z,78.38
2018-09-23T17:13:54.097Z,78.86
2018-09-23T17:16:22.120Z,78.87
2018-09-23T17:18:50.161Z,79.54
2018-09-23T17:21:18.196Z,79.81
2018-09-23T17:23:46.453Z,79.70
2018-09-23T17:26:14.455Z,79.50
2018-09-23T17:28:42.701Z,79.43
2018-09-23T17:31:10.663Z,79.29
2018-09-23T17:33:38.680Z,79.58
2018-09-23T17:36:07.804Z,79.72
2018-09-23T17:38:36.460Z,79.74
2018-09-23T17:41:05.128Z,79.32
2018-09-23T17:43:33.156Z,79.60
2018-09-23T17:46:01.200Z,79.49
2018-09-23T17:48:29.355Z,79.31
2018-09-23T17:50:57.536Z,79.16
2018-09-23T17:53:25.547Z,79.93
2018-09-23T17:55:53.564Z,79.74
2018-09-23T17:58:21.604Z,79.37
2018-09-23T18:00:49.640Z,79.52
2018-09-23T18:03:18.160Z,79.88
2018-09-23T18:05:46.331Z,79.83
2018-09-23T18:08:14.358Z,79.97
2018-09-23T18:10:42.360Z,79.65
2018-09-23T18:13:10.544Z,79.74
2018-09-23T18:15:38.596Z,79.95
2018-09-23T18:18:06.639Z,79.94
2018-09-23T18:20:35.275Z,79.68
2018-09-23T18:23:03.299Z,80.03
2018-09-23T18:25:31.320Z,79.94
2018-09-23T18:27:59.344Z,80.34
2018-09-23T18:30:27.361Z,80.22
2018-09-23T18:32:55.451Z,79.61
2018-09-23T18:35:23.477Z,80.24
2018-09-23T18:37:51.499Z,80.17
2018-09-23T18:40:19.507Z,80.82
2018-09-23T18:42:47.758Z,80.25
2018-09-23T18:45:15.752Z,79.88
2018-09-23T18:47:44.733Z,80.29
2018-09-23T18:50:13.396Z,80.36
2018-09-23T18:52:41.416Z,80.60
2018-09-23T18:55:14.816Z,80.22
2018-09-23T18:57:42.799Z,80.57
2018-09-23T19:00:10.816Z,80.31
2018-09-23T19:02:38.838Z,79.97
2018-09-23T19:05:06.844Z,79.89
2018-09-23T19:07:35.015Z,80.01
2018-09-23T19:10:04.025Z,79.55
2018-09-23T19:12:32.049Z,79.80
2018-09-23T19:15:00.072Z,80.48
2018-09-23T19:17:28.107Z,79.59
2018-09-23T19:20:01.516Z,80.39
2018-09-23T19:22:34.928Z,79.96
2018-09-23T19:25:03.001Z,79.83
2018-09-23T19:27:31.026Z,79.90
2018-09-23T19:29:59.044Z,80.11
2018-09-23T19:32:27.116Z,79.59
2018-09-23T19:34:55.288Z,80.03
2018-09-23T19:37:23.323Z,79.14
2018-09-23T19:39:51.327Z,79.62
2018-09-23T19:42:19.671Z,80.03
2018-09-23T19:44:47.687Z,79.15
2018-09-23T19:47:15.715Z,78.67
2018-09-23T19:49:44.316Z,77.99
2018-09-23T19:52:12.359Z,78.73
2018-09-23T19:54:40.372Z,78.75
2018-09-23T19:57:08.396Z,79.11
2018-09-23T19:59:36.415Z,78.86
2018-09-23T20:02:05.043Z,78.82
2018-09-23T20:04:33.054Z,78.46
2018-09-23T20:07:01.111Z,78.30
2018-09-23T20:09:29.092Z,78.52
2018-09-23T20:11:57.104Z,78.70
2018-09-23T20:14:25.284Z,78.38
2018-09-23T20:16:53.307Z,78.39
2018-09-23T20:19:22.912Z,77.68
2018-09-23T20:21:50.955Z,78.30
2018-09-23T20:24:18.975Z,77.90
2018-09-23T20:26:47.015Z,77.74
2018-09-23T20:29:15.031Z,77.26
2018-09-23T20:31:43.912Z,77.41
2018-09-23T20:34:12.438Z,77.65
2018-09-23T20:36:40.451Z,78.20
2018-09-23T20:39:09.244Z,77.97
2018-09-23T20:41:37.259Z,77.49
2018-09-23T20:44:05.283Z,77.60
2018-09-23T20:46:33.301Z,77.72
2018-09-23T20:49:01.320Z,78.17
2018-09-23T20:51:29.328Z,77.71
2018-09-23T20:53:57.339Z,77.16
2018-09-23T20:56:25.366Z,77.61
2018-09-23T20:58:53.380Z,77.22
2018-09-23T21:01:21.455Z,77.66
2018-09-23T21:03:50.500Z,77.45
2018-09-23T21:06:18.524Z,77.67
2018-09-23T21:08:46.532Z,78.06
2018-09-23T21:11:14.547Z,77.54
2018-09-23T21:13:42.560Z,77.72
2018-09-23T21:16:10.564Z,77.48
2018-09-23T21:18:38.583Z,78.06
2018-09-23T21:21:06.624Z,77.83
2018-09-23T21:23:35.864Z,77.57
2018-09-23T21:26:04.556Z,77.65
2018-09-23T21:28:32.609Z,77.76
2018-09-23T21:31:00.647Z,77.85
2018-09-23T21:33:28.660Z,78.06
2018-09-23T21:35:57.183Z,78.21
2018-09-23T21:38:25.194Z,77.88
2018-09-23T21:40:53.208Z,78.27
2018-09-23T21:43:21.215Z,78.20
2018-09-23T21:45:49.220Z,78.09
2018-09-23T21:48:17.235Z,78.13
2018-09-23T21:50:45.253Z,78.66
2018-09-23T21:53:13.273Z,78.73
2018-09-23T21:55:41.292Z,79.17
2018-09-23T21:58:09.295Z,78.87
2018-09-23T22:00:44.184Z,78.84
2018-09-23T22:03:13.498Z,79.11
2018-09-23T22:05:41.528Z,79.26
2018-09-23T22:08:10.244Z,79.25
2018-09-23T22:10:38.258Z,79.13
2018-09-23T22:13:06.529Z,78.93
2018-09-23T22:15:34.720Z,78.08
2018-09-23T22:18:02.736Z,78.09
2018-09-23T22:20:30.741Z,78.10
2018-09-23T22:22:58.764Z,78.37
2018-09-23T22:25:26.769Z,78.10
2018-09-23T22:27:54.931Z,77.84
2018-09-23T22:30:24.160Z,77.98
2018-09-23T22:32:52.180Z,77.90
2018-09-23T22:35:20.191Z,77.77
2018-09-23T22:37:48.319Z,78.06
2018-09-23T22:40:16.333Z,77.62
2018-09-23T22:42:44.348Z,77.46
2018-09-23T22:45:12.364Z,77.63
2018-09-23T22:47:40.375Z,76.94
2018-09-23T22:50:08.848Z,77.26
2018-09-23T22:52:36.855Z,77.05
2018-09-23T22:55:05.591Z,76.44
2018-09-23T22:57:33.609Z,76.65
2018-09-23T23:00:01.611Z,76.79
2018-09-23T23:02:29.640Z,76.50
2018-09-23T23:04:57.654Z,76.08
2018-09-23T23:07:25.652Z,76.49
2018-09-23T23:09:55.946Z,76.36
2018-09-23T23:12:23.952Z,76.22
2018-09-23T23:14:51.960Z,76.43
2018-09-23T23:17:19.991Z,76.24
2018-09-23T23:19:47.987Z,76.42
2018-09-23T23:22:15.987Z,76.75
2018-09-23T23:24:44.012Z,76.05
2018-09-23T23:27:12.007Z,76.51
2018-09-23T23:29:40.016Z,76.42
2018-09-23T23:32:08.244Z,76.11
2018-09-23T23:34:36.251Z,76.47
2018-09-23T23:37:04.811Z,76.08
2018-09-23T23:39:32.972Z,76.31
2018-09-23T23:42:00.988Z,76.70
2018-09-23T23:44:28.997Z,76.12
2018-09-23T23:46:57.008Z,76.21
2018-09-23T23:49:25.007Z,76.50
2018-09-23T23:51:53.008Z,76.34
2018-09-23T23:54:21.019Z,75.92
2018-09-23T23:56:49.043Z,76.18
2018-09-23T23:59:17.043Z,76.25
